Tampa, Florida
Traffic Map
Current Weather Conditions
Tampa, Florida
Broken Clouds
Broken Clouds
89°
Feels Like: 98°
Wind Chill: 89° Ceiling: 25000
Heat Index: 98° Visibility: 10mi
Dew Point: 74° Wind: 12mph
Humidity: 61% Direction: 250° (WSW)
Pressure: 30.07in Gusts: 0mph
Raw Report DataKTPA 281553Z 25010KT 10SM SCT035TCU BKN250 32/23 A3007 RMK AO2 SLP181 TCU W-NE T03170233
Traffic Incident Summary
Active as of:
Severity:
Category:
InformationThere was an issue retrieving the traffic information for this location. Please try a different location or try again shortly.
Advertisements
Track Severe Weather on mobile